sensor_id;sensor_type;location;lat;lon;timestamp;P1;durP1;ratioP1;P2;durP2;ratioP2
3036;SDS011;1528;52.550;13.408;2023-04-01T00:00:59;14.93;;;14.33;;
3036;SDS011;1528;52.550;13.408;2023-04-01T00:03:45;16.30;;;15.70;;
3036;SDS011;1528;52.550;13.408;2023-04-01T00:06:33;14.73;;;14.13;;
3036;SDS011;1528;52.550;13.408;2023-04-01T00:09:18;14.83;;;14.17;;
3036;SDS011;1528;52.550;13.408;2023-04-01T00:12:04;15.60;;;15.00;;
3036;SDS011;1528;52.550;13.408;2023-04-01T00:14:50;19.10;;;18.10;;
3036;SDS011;1528;52.550;13.408;2023-04-01T00:17:36;16.17;;;15.60;;
3036;SDS011;1528;52.550;13.408;2023-04-01T00:20:21;18.03;;;17.33;;
3036;SDS011;1528;52.550;13.408;2023-04-01T00:23:08;14.40;;;13.90;;
3036;SDS011;1528;52.550;13.408;2023-04-01T00:25:54;16.50;;;15.90;;
3036;SDS011;1528;52.550;13.408;2023-04-01T00:28:39;16.10;;;15.57;;
3036;SDS011;1528;52.550;13.408;2023-04-01T00:31:25;15.63;;;14.93;;
3036;SDS011;1528;52.550;13.408;2023-04-01T00:34:10;17.53;;;16.60;;
3036;SDS011;1528;52.550;13.408;2023-04-01T00:36:56;18.70;;;18.07;;
3036;SDS011;1528;52.550;13.408;2023-04-01T00:39:43;17.33;;;16.67;;
3036;SDS011;1528;52.550;13.408;2023-04-01T00:42:29;17.03;;;16.27;;
3036;SDS011;1528;52.550;13.408;2023-04-01T00:48:25;19.17;;;18.47;;
3036;SDS011;1528;52.550;13.408;2023-04-01T00:51:15;14.90;;;14.10;;
3036;SDS011;1528;52.550;13.408;2023-04-01T00:54:03;16.37;;;15.77;;
3036;SDS011;1528;52.550;13.408;2023-04-01T00:56:52;16.90;;;16.23;;
3036;SDS011;1528;52.550;13.408;2023-04-01T00:59:42;15.83;;;15.13;;
3036;SDS011;1528;52.550;13.408;2023-04-01T01:02:29;17.50;;;16.90;;
3036;SDS011;1528;52.550;13.408;2023-04-01T01:05:17;17.63;;;16.97;;
3036;SDS011;1528;52.550;13.408;2023-04-01T01:08:17;13.70;;;13.20;;
3036;SDS011;1528;52.550;13.408;2023-04-01T01:11:08;15.00;;;14.23;;
3036;SDS011;1528;52.550;13.408;2023-04-01T01:13:58;14.70;;;14.00;;
3036;SDS011;1528;52.550;13.408;2023-04-01T01:16:52;15.83;;;15.03;;
3036;SDS011;1528;52.550;13.408;2023-04-01T01:19:48;14.03;;;13.23;;
3036;SDS011;1528;52.550;13.408;2023-04-01T01:22:52;16.90;;;16.20;;
3036;SDS011;1528;52.550;13.408;2023-04-01T01:25:54;15.90;;;15.30;;
3036;SDS011;1528;52.550;13.408;2023-04-01T01:28:57;15.33;;;14.70;;
3036;SDS011;1528;52.550;13.408;2023-04-01T01:31:53;17.70;;;16.90;;
3036;SDS011;1528;52.550;13.408;2023-04-01T01:34:49;15.33;;;14.53;;
3036;SDS011;1528;52.550;13.408;2023-04-01T01:37:41;17.80;;;17.00;;
3036;SDS011;1528;52.550;13.408;2023-04-01T01:40:29;16.97;;;16.27;;
3036;SDS011;1528;52.550;13.408;2023-04-01T01:43:18;14.47;;;13.73;;
3036;SDS011;1528;52.550;13.408;2023-04-01T01:46:07;13.90;;;13.20;;
3036;SDS011;1528;52.550;13.408;2023-04-01T01:48:55;16.40;;;15.27;;
3036;SDS011;1528;52.550;13.408;2023-04-01T01:51:42;16.40;;;15.60;;
3036;SDS011;1528;52.550;13.408;2023-04-01T01:54:29;16.93;;;15.80;;
3036;SDS011;1528;52.550;13.408;2023-04-01T01:57:14;14.07;;;13.47;;
3036;SDS011;1528;52.550;13.408;2023-04-01T02:00:02;17.00;;;16.30;;
3036;SDS011;1528;52.550;13.408;2023-04-01T02:02:52;17.67;;;16.77;;
3036;SDS011;1528;52.550;13.408;2023-04-01T02:05:38;14.40;;;13.67;;
3036;SDS011;1528;52.550;13.408;2023-04-01T02:08:25;18.10;;;17.40;;
3036;SDS011;1528;52.550;13.408;2023-04-01T02:11:15;16.97;;;16.23;;
3036;SDS011;1528;52.550;13.408;2023-04-01T02:14:04;16.40;;;15.73;;
3036;SDS011;1528;52.550;13.408;2023-04-01T02:16:53;18.37;;;17.37;;
3036;SDS011;1528;52.550;13.408;2023-04-01T02:19:43;19.87;;;19.07;;
3036;SDS011;1528;52.550;13.408;2023-04-01T02:22:33;14.43;;;13.83;;
3036;SDS011;1528;52.550;13.408;2023-04-01T02:25:20;16.30;;;15.63;;
3036;SDS011;1528;52.550;13.408;2023-04-01T02:28:10;16.50;;;15.80;;
3036;SDS011;1528;52.550;13.408;2023-04-01T02:30:59;17.90;;;17.13;;
3036;SDS011;1528;52.550;13.408;2023-04-01T02:33:46;15.57;;;14.87;;
3036;SDS011;1528;52.550;13.408;2023-04-01T02:36:34;15.67;;;14.97;;
3036;SDS011;1528;52.550;13.408;2023-04-01T02:39:20;18.13;;;17.33;;
3036;SDS011;1528;52.550;13.408;2023-04-01T02:42:06;18.37;;;17.53;;
3036;SDS011;1528;52.550;13.408;2023-04-01T02:44:53;16.13;;;15.23;;
3036;SDS011;1528;52.550;13.408;2023-04-01T02:47:38;15.03;;;14.33;;
3036;SDS011;1528;52.550;13.408;2023-04-01T02:50:24;17.70;;;17.00;;
3036;SDS011;1528;52.550;13.408;2023-04-01T02:53:10;14.80;;;14.17;;
3036;SDS011;1528;52.550;13.408;2023-04-01T02:55:55;16.90;;;16.10;;
3036;SDS011;1528;52.550;13.408;2023-04-01T02:58:41;17.10;;;16.17;;
3036;SDS011;1528;52.550;13.408;2023-04-01T03:01:28;18.67;;;17.97;;
3036;SDS011;1528;52.550;13.408;2023-04-01T03:04:14;18.67;;;17.80;;
3036;SDS011;1528;52.550;13.408;2023-04-01T03:06:59;15.57;;;14.87;;
3036;SDS011;1528;52.550;13.408;2023-04-01T03:09:45;16.00;;;15.40;;
3036;SDS011;1528;52.550;13.408;2023-04-01T03:12:31;14.60;;;13.90;;
3036;SDS011;1528;52.550;13.408;2023-04-01T03:15:16;18.73;;;18.03;;
3036;SDS011;1528;52.550;13.408;2023-04-01T03:18:03;15.00;;;14.40;;
3036;SDS011;1528;52.550;13.408;2023-04-01T03:20:49;13.37;;;12.77;;
3036;SDS011;1528;52.550;13.408;2023-04-01T03:23:35;14.43;;;13.83;;
3036;SDS011;1528;52.550;13.408;2023-04-01T03:26:20;17.07;;;16.37;;
3036;SDS011;1528;52.550;13.408;2023-04-01T03:29:06;14.37;;;13.73;;
3036;SDS011;1528;52.550;13.408;2023-04-01T03:31:52;16.13;;;15.33;;
3036;SDS011;1528;52.550;13.408;2023-04-01T03:34:39;16.70;;;16.00;;
3036;SDS011;1528;52.550;13.408;2023-04-01T03:37:25;17.40;;;16.60;;
3036;SDS011;1528;52.550;13.408;2023-04-01T03:40:10;14.00;;;13.40;;
3036;SDS011;1528;52.550;13.408;2023-04-01T03:42:56;17.40;;;16.70;;
3036;SDS011;1528;52.550;13.408;2023-04-01T03:45:43;15.10;;;14.30;;
3036;SDS011;1528;52.550;13.408;2023-04-01T03:48:29;17.20;;;16.47;;
3036;SDS011;1528;52.550;13.408;2023-04-01T03:51:16;15.10;;;14.40;;
3036;SDS011;1528;52.550;13.408;2023-04-01T03:54:02;15.30;;;14.60;;
3036;SDS011;1528;52.550;13.408;2023-04-01T03:56:47;17.17;;;16.47;;
3036;SDS011;1528;52.550;13.408;2023-04-01T03:59:33;17.77;;;16.87;;
3036;SDS011;1528;52.550;13.408;2023-04-01T04:02:19;15.40;;;14.80;;
3036;SDS011;1528;52.550;13.408;2023-04-01T04:05:05;18.70;;;17.63;;
3036;SDS011;1528;52.550;13.408;2023-04-01T04:07:53;17.70;;;16.73;;
3036;SDS011;1528;52.550;13.408;2023-04-01T04:10:39;16.27;;;15.57;;
3036;SDS011;1528;52.550;13.408;2023-04-01T04:13:24;16.90;;;16.30;;
3036;SDS011;1528;52.550;13.408;2023-04-01T04:16:10;13.87;;;13.27;;
3036;SDS011;1528;52.550;13.408;2023-04-01T04:18:56;14.63;;;14.03;;
3036;SDS011;1528;52.550;13.408;2023-04-01T04:21:41;17.10;;;16.33;;
3036;SDS011;1528;52.550;13.408;2023-04-01T04:24:28;14.73;;;14.13;;
3036;SDS011;1528;52.550;13.408;2023-04-01T04:27:14;19.00;;;18.17;;
3036;SDS011;1528;52.550;13.408;2023-04-01T04:29:59;16.63;;;15.93;;
3036;SDS011;1528;52.550;13.408;2023-04-01T04:32:45;13.70;;;13.20;;
3036;SDS011;1528;52.550;13.408;2023-04-01T04:35:31;16.10;;;15.30;;
3036;SDS011;1528;52.550;13.408;2023-04-01T04:38:17;17.50;;;16.70;;
3036;SDS011;1528;52.550;13.408;2023-04-01T04:41:04;18.40;;;17.60;;
3036;SDS011;1528;52.550;13.408;2023-04-01T04:43:54;19.97;;;19.17;;
3036;SDS011;1528;52.550;13.408;2023-04-01T04:46:42;19.57;;;18.57;;
3036;SDS011;1528;52.550;13.408;2023-04-01T04:49:27;20.47;;;19.57;;
3036;SDS011;1528;52.550;13.408;2023-04-01T04:52:13;19.30;;;18.57;;
3036;SDS011;1528;52.550;13.408;2023-04-01T04:54:59;19.27;;;18.27;;
3036;SDS011;1528;52.550;13.408;2023-04-01T04:57:46;22.47;;;21.47;;
3036;SDS011;1528;52.550;13.408;2023-04-01T05:00:31;17.33;;;16.53;;
3036;SDS011;1528;52.550;13.408;2023-04-01T05:03:17;17.73;;;16.90;;
3036;SDS011;1528;52.550;13.408;2023-04-01T05:06:03;19.47;;;18.57;;
3036;SDS011;1528;52.550;13.408;2023-04-01T05:08:49;19.47;;;18.57;;
3036;SDS011;1528;52.550;13.408;2023-04-01T05:11:35;18.10;;;17.20;;
3036;SDS011;1528;52.550;13.408;2023-04-01T05:14:22;16.80;;;16.00;;
3036;SDS011;1528;52.550;13.408;2023-04-01T05:17:08;17.20;;;16.43;;
3036;SDS011;1528;52.550;13.408;2023-04-01T05:19:54;21.37;;;20.27;;
3036;SDS011;1528;52.550;13.408;2023-04-01T05:22:40;21.57;;;20.47;;
3036;SDS011;1528;52.550;13.408;2023-04-01T05:25:25;19.23;;;18.13;;
3036;SDS011;1528;52.550;13.408;2023-04-01T05:28:11;21.20;;;20.33;;
3036;SDS011;1528;52.550;13.408;2023-04-01T05:30:59;20.70;;;19.77;;
3036;SDS011;1528;52.550;13.408;2023-04-01T05:33:45;18.23;;;17.33;;
3036;SDS011;1528;52.550;13.408;2023-04-01T05:36:31;19.60;;;18.90;;
3036;SDS011;1528;52.550;13.408;2023-04-01T05:39:16;19.77;;;18.87;;
3036;SDS011;1528;52.550;13.408;2023-04-01T05:42:02;15.93;;;15.07;;
3036;SDS011;1528;52.550;13.408;2023-04-01T05:44:50;19.00;;;18.00;;
3036;SDS011;1528;52.550;13.408;2023-04-01T05:47:36;14.77;;;13.77;;
3036;SDS011;1528;52.550;13.408;2023-04-01T05:50:22;16.57;;;15.77;;
3036;SDS011;1528;52.550;13.408;2023-04-01T05:53:08;18.67;;;17.77;;
3036;SDS011;1528;52.550;13.408;2023-04-01T05:55:53;15.13;;;14.30;;
3036;SDS011;1528;52.550;13.408;2023-04-01T05:58:39;19.10;;;18.20;;
3036;SDS011;1528;52.550;13.408;2023-04-01T06:01:25;17.77;;;16.90;;
3036;SDS011;1528;52.550;13.408;2023-04-01T06:04:14;16.63;;;15.70;;
3036;SDS011;1528;52.550;13.408;2023-04-01T06:07:00;16.57;;;15.63;;
3036;SDS011;1528;52.550;13.408;2023-04-01T06:09:50;14.70;;;13.80;;
3036;SDS011;1528;52.550;13.408;2023-04-01T06:12:50;17.30;;;16.40;;
3036;SDS011;1528;52.550;13.408;2023-04-01T06:15:42;15.07;;;14.33;;
3036;SDS011;1528;52.550;13.408;2023-04-01T06:18:42;16.40;;;15.33;;
3036;SDS011;1528;52.550;13.408;2023-04-01T06:21:46;15.57;;;14.47;;
3036;SDS011;1528;52.550;13.408;2023-04-01T06:24:50;16.50;;;15.67;;
3036;SDS011;1528;52.550;13.408;2023-04-01T06:27:50;16.60;;;15.60;;
3036;SDS011;1528;52.550;13.408;2023-04-01T06:30:49;16.83;;;15.93;;
3036;SDS011;1528;52.550;13.408;2023-04-01T06:33:50;17.30;;;16.30;;
3036;SDS011;1528;52.550;13.408;2023-04-01T06:36:49;16.90;;;16.03;;
3036;SDS011;1528;52.550;13.408;2023-04-01T06:39:45;18.90;;;17.53;;
3036;SDS011;1528;52.550;13.408;2023-04-01T06:42:42;20.27;;;19.37;;
3036;SDS011;1528;52.550;13.408;2023-04-01T06:45:41;21.03;;;20.10;;
3036;SDS011;1528;52.550;13.408;2023-04-01T06:48:36;19.77;;;18.77;;
3036;SDS011;1528;52.550;13.408;2023-04-01T06:51:42;19.73;;;18.83;;
3036;SDS011;1528;52.550;13.408;2023-04-01T06:54:37;20.53;;;19.63;;
3036;SDS011;1528;52.550;13.408;2023-04-01T06:57:27;21.80;;;20.63;;
3036;SDS011;1528;52.550;13.408;2023-04-01T07:00:19;23.63;;;22.27;;
3036;SDS011;1528;52.550;13.408;2023-04-01T07:03:13;20.67;;;19.67;;
3036;SDS011;1528;52.550;13.408;2023-04-01T07:06:05;21.50;;;20.30;;
3036;SDS011;1528;52.550;13.408;2023-04-01T07:08:55;21.33;;;20.43;;
3036;SDS011;1528;52.550;13.408;2023-04-01T07:11:46;24.70;;;23.50;;
3036;SDS011;1528;52.550;13.408;2023-04-01T07:14:32;37.00;;;34.70;;
3036;SDS011;1528;52.550;13.408;2023-04-01T07:17:23;24.10;;;22.90;;
3036;SDS011;1528;52.550;13.408;2023-04-01T07:20:13;23.70;;;22.50;;
3036;SDS011;1528;52.550;13.408;2023-04-01T07:23:05;23.17;;;22.07;;
3036;SDS011;1528;52.550;13.408;2023-04-01T07:25:58;21.60;;;20.60;;
3036;SDS011;1528;52.550;13.408;2023-04-01T07:28:47;29.87;;;28.37;;
3036;SDS011;1528;52.550;13.408;2023-04-01T07:31:39;22.70;;;21.60;;
3036;SDS011;1528;52.550;13.408;2023-04-01T07:34:37;25.60;;;24.07;;
3036;SDS011;1528;52.550;13.408;2023-04-01T07:37:30;28.97;;;27.67;;
3036;SDS011;1528;52.550;13.408;2023-04-01T07:40:23;25.63;;;24.47;;
3036;SDS011;1528;52.550;13.408;2023-04-01T07:46:32;22.00;;;20.90;;
3036;SDS011;1528;52.550;13.408;2023-04-01T07:49:30;20.03;;;19.03;;
3036;SDS011;1528;52.550;13.408;2023-04-01T07:52:29;21.60;;;20.70;;
3036;SDS011;1528;52.550;13.408;2023-04-01T07:55:22;22.43;;;21.63;;
3036;SDS011;1528;52.550;13.408;2023-04-01T07:58:12;23.47;;;22.47;;
3036;SDS011;1528;52.550;13.408;2023-04-01T08:01:08;22.67;;;21.67;;
3036;SDS011;1528;52.550;13.408;2023-04-01T08:04:17;22.23;;;21.33;;
3036;SDS011;1528;52.550;13.408;2023-04-01T08:07:10;20.30;;;19.60;;
3036;SDS011;1528;52.550;13.408;2023-04-01T08:10:02;18.93;;;18.23;;
3036;SDS011;1528;52.550;13.408;2023-04-01T08:12:57;18.50;;;17.80;;
3036;SDS011;1528;52.550;13.408;2023-04-01T08:15:53;21.73;;;21.03;;
3036;SDS011;1528;52.550;13.408;2023-04-01T08:18:46;17.00;;;16.40;;
3036;SDS011;1528;52.550;13.408;2023-04-01T08:21:42;19.87;;;19.20;;
3036;SDS011;1528;52.550;13.408;2023-04-01T08:24:33;17.70;;;17.10;;
3036;SDS011;1528;52.550;13.408;2023-04-01T08:27:23;16.43;;;15.83;;
3036;SDS011;1528;52.550;13.408;2023-04-01T08:30:16;18.17;;;17.47;;
3036;SDS011;1528;52.550;13.408;2023-04-01T08:33:05;17.47;;;16.67;;
3036;SDS011;1528;52.550;13.408;2023-04-01T08:35:59;20.03;;;18.93;;
3036;SDS011;1528;52.550;13.408;2023-04-01T08:38:51;23.47;;;22.33;;
3036;SDS011;1528;52.550;13.408;2023-04-01T08:48:15;22.20;;;20.90;;
3036;SDS011;1528;52.550;13.408;2023-04-01T08:54:46;22.40;;;21.20;;
3036;SDS011;1528;52.550;13.408;2023-04-01T08:57:45;20.60;;;19.50;;
3036;SDS011;1528;52.550;13.408;2023-04-01T09:00:43;23.50;;;22.30;;
3036;SDS011;1528;52.550;13.408;2023-04-01T09:03:41;24.50;;;23.30;;
3036;SDS011;1528;52.550;13.408;2023-04-01T09:06:38;27.00;;;25.80;;
3036;SDS011;1528;52.550;13.408;2023-04-01T09:09:48;24.87;;;23.77;;
3036;SDS011;1528;52.550;13.408;2023-04-01T09:16:12;22.37;;;21.27;;
3036;SDS011;1528;52.550;13.408;2023-04-01T09:19:11;23.70;;;22.50;;
3036;SDS011;1528;52.550;13.408;2023-04-01T09:22:08;27.03;;;25.73;;
3036;SDS011;1528;52.550;13.408;2023-04-01T09:28:32;27.00;;;25.70;;
3036;SDS011;1528;52.550;13.408;2023-04-01T09:31:25;28.20;;;26.90;;
3036;SDS011;1528;52.550;13.408;2023-04-01T09:34:36;23.87;;;22.77;;
3036;SDS011;1528;52.550;13.408;2023-04-01T09:37:40;27.23;;;26.03;;
3036;SDS011;1528;52.550;13.408;2023-04-01T09:40:37;26.17;;;25.07;;
3036;SDS011;1528;52.550;13.408;2023-04-01T09:43:34;26.40;;;25.20;;
3036;SDS011;1528;52.550;13.408;2023-04-01T09:46:41;24.13;;;23.10;;
3036;SDS011;1528;52.550;13.408;2023-04-01T09:49:40;25.40;;;24.20;;
3036;SDS011;1528;52.550;13.408;2023-04-01T09:52:38;23.33;;;22.33;;
3036;SDS011;1528;52.550;13.408;2023-04-01T09:55:39;24.07;;;23.17;;
3036;SDS011;1528;52.550;13.408;2023-04-01T09:59:06;25.63;;;24.57;;
3036;SDS011;1528;52.550;13.408;2023-04-01T10:02:33;21.77;;;20.87;;
3036;SDS011;1528;52.550;13.408;2023-04-01T10:05:55;21.87;;;20.87;;
3036;SDS011;1528;52.550;13.408;2023-04-01T10:15:56;23.57;;;22.67;;
3036;SDS011;1528;52.550;13.408;2023-04-01T10:19:15;24.10;;;23.10;;
3036;SDS011;1528;52.550;13.408;2023-04-01T10:22:24;23.93;;;23.03;;
3036;SDS011;1528;52.550;13.408;2023-04-01T10:25:42;26.00;;;24.70;;
3036;SDS011;1528;52.550;13.408;2023-04-01T10:32:29;26.33;;;25.13;;
3036;SDS011;1528;52.550;13.408;2023-04-01T10:46:15;23.77;;;22.67;;
3036;SDS011;1528;52.550;13.408;2023-04-01T10:52:46;24.50;;;23.30;;
3036;SDS011;1528;52.550;13.408;2023-04-01T10:56:00;23.40;;;22.30;;
3036;SDS011;1528;52.550;13.408;2023-04-01T11:02:38;21.50;;;20.50;;
3036;SDS011;1528;52.550;13.408;2023-04-01T11:12:49;23.73;;;22.63;;
3036;SDS011;1528;52.550;13.408;2023-04-01T11:19:32;21.40;;;20.40;;
3036;SDS011;1528;52.550;13.408;2023-04-01T11:22:52;23.57;;;22.47;;
3036;SDS011;1528;52.550;13.408;2023-04-01T11:26:08;24.07;;;22.97;;
3036;SDS011;1528;52.550;13.408;2023-04-01T11:32:13;24.13;;;22.93;;
3036;SDS011;1528;52.550;13.408;2023-04-01T11:35:16;22.53;;;21.43;;
3036;SDS011;1528;52.550;13.408;2023-04-01T11:38:17;27.63;;;26.43;;
3036;SDS011;1528;52.550;13.408;2023-04-01T11:41:15;27.60;;;26.30;;
3036;SDS011;1528;52.550;13.408;2023-04-01T11:44:16;24.67;;;23.57;;
3036;SDS011;1528;52.550;13.408;2023-04-01T11:47:12;24.80;;;23.70;;
3036;SDS011;1528;52.550;13.408;2023-04-01T11:50:13;25.13;;;24.03;;
3036;SDS011;1528;52.550;13.408;2023-04-01T11:53:13;27.27;;;26.13;;
3036;SDS011;1528;52.550;13.408;2023-04-01T11:56:13;29.05;;;27.85;;
3036;SDS011;1528;52.550;13.408;2023-04-01T11:59:25;24.40;;;23.30;;
3036;SDS011;1528;52.550;13.408;2023-04-01T12:02:29;28.97;;;27.67;;
3036;SDS011;1528;52.550;13.408;2023-04-01T12:05:27;26.80;;;25.60;;
3036;SDS011;1528;52.550;13.408;2023-04-01T12:08:27;26.03;;;24.93;;
3036;SDS011;1528;52.550;13.408;2023-04-01T12:11:25;25.83;;;24.63;;
3036;SDS011;1528;52.550;13.408;2023-04-01T12:14:19;24.40;;;23.40;;
3036;SDS011;1528;52.550;13.408;2023-04-01T12:17:13;27.43;;;26.23;;
3036;SDS011;1528;52.550;13.408;2023-04-01T12:20:22;26.83;;;25.73;;
3036;SDS011;1528;52.550;13.408;2023-04-01T12:23:33;22.63;;;21.50;;
3036;SDS011;1528;52.550;13.408;2023-04-01T12:26:43;22.70;;;21.60;;
3036;SDS011;1528;52.550;13.408;2023-04-01T12:29:47;21.97;;;21.07;;
3036;SDS011;1528;52.550;13.408;2023-04-01T12:32:45;24.07;;;22.87;;
3036;SDS011;1528;52.550;13.408;2023-04-01T12:35:38;24.17;;;23.00;;
3036;SDS011;1528;52.550;13.408;2023-04-01T12:38:43;21.30;;;20.30;;
3036;SDS011;1528;52.550;13.408;2023-04-01T12:41:42;23.63;;;22.53;;
3036;SDS011;1528;52.550;13.408;2023-04-01T12:44:36;27.40;;;26.10;;
3036;SDS011;1528;52.550;13.408;2023-04-01T12:50:58;24.47;;;23.37;;
3036;SDS011;1528;52.550;13.408;2023-04-01T12:54:16;26.20;;;24.93;;
3036;SDS011;1528;52.550;13.408;2023-04-01T12:57:17;25.50;;;24.30;;
3036;SDS011;1528;52.550;13.408;2023-04-01T13:00:21;24.63;;;23.43;;
3036;SDS011;1528;52.550;13.408;2023-04-01T13:03:18;25.00;;;23.70;;
3036;SDS011;1528;52.550;13.408;2023-04-01T13:06:24;27.07;;;25.77;;
3036;SDS011;1528;52.550;13.408;2023-04-01T13:09:32;23.33;;;22.13;;
3036;SDS011;1528;52.550;13.408;2023-04-01T13:15:36;24.47;;;23.37;;
3036;SDS011;1528;52.550;13.408;2023-04-01T13:18:29;25.70;;;24.50;;
3036;SDS011;1528;52.550;13.408;2023-04-01T13:21:25;25.90;;;24.53;;
3036;SDS011;1528;52.550;13.408;2023-04-01T13:24:24;25.40;;;24.30;;
3036;SDS011;1528;52.550;13.408;2023-04-01T13:27:25;23.73;;;22.63;;
3036;SDS011;1528;52.550;13.408;2023-04-01T13:30:22;25.23;;;24.03;;
3036;SDS011;1528;52.550;13.408;2023-04-01T13:33:13;26.93;;;25.63;;
3036;SDS011;1528;52.550;13.408;2023-04-01T13:36:14;26.10;;;24.80;;
3036;SDS011;1528;52.550;13.408;2023-04-01T13:39:20;25.27;;;24.07;;
3036;SDS011;1528;52.550;13.408;2023-04-01T13:42:28;21.47;;;20.20;;
3036;SDS011;1528;52.550;13.408;2023-04-01T13:45:16;21.60;;;20.60;;
3036;SDS011;1528;52.550;13.408;2023-04-01T13:48:18;23.37;;;22.37;;
3036;SDS011;1528;52.550;13.408;2023-04-01T13:51:21;22.57;;;21.47;;
3036;SDS011;1528;52.550;13.408;2023-04-01T13:54:22;20.90;;;20.00;;
3036;SDS011;1528;52.550;13.408;2023-04-01T13:57:26;21.33;;;20.43;;
3036;SDS011;1528;52.550;13.408;2023-04-01T14:00:29;22.40;;;21.40;;
3036;SDS011;1528;52.550;13.408;2023-04-01T14:07:00;22.60;;;21.60;;
3036;SDS011;1528;52.550;13.408;2023-04-01T14:10:04;20.17;;;19.27;;
3036;SDS011;1528;52.550;13.408;2023-04-01T14:12:58;21.53;;;20.63;;
3036;SDS011;1528;52.550;13.408;2023-04-01T14:15:54;19.70;;;18.90;;
3036;SDS011;1528;52.550;13.408;2023-04-01T14:18:58;19.17;;;18.20;;
3036;SDS011;1528;52.550;13.408;2023-04-01T14:21:58;17.10;;;16.30;;
3036;SDS011;1528;52.550;13.408;2023-04-01T14:25:03;16.20;;;15.50;;
3036;SDS011;1528;52.550;13.408;2023-04-01T14:28:21;16.80;;;16.10;;
3036;SDS011;1528;52.550;13.408;2023-04-01T14:34:25;16.37;;;15.77;;
3036;SDS011;1528;52.550;13.408;2023-04-01T14:37:35;19.60;;;18.90;;
3036;SDS011;1528;52.550;13.408;2023-04-01T14:40:40;15.73;;;15.13;;
3036;SDS011;1528;52.550;13.408;2023-04-01T14:50:20;14.93;;;14.33;;
3036;SDS011;1528;52.550;13.408;2023-04-01T14:53:11;15.57;;;14.93;;
3036;SDS011;1528;52.550;13.408;2023-04-01T14:56:08;17.03;;;16.33;;
3036;SDS011;1528;52.550;13.408;2023-04-01T14:58:57;15.87;;;15.20;;
3036;SDS011;1528;52.550;13.408;2023-04-01T15:01:46;15.43;;;14.77;;
3036;SDS011;1528;52.550;13.408;2023-04-01T15:04:37;15.30;;;14.67;;
3036;SDS011;1528;52.550;13.408;2023-04-01T15:07:42;19.77;;;19.07;;
3036;SDS011;1528;52.550;13.408;2023-04-01T15:11:22;15.20;;;14.50;;
3036;SDS011;1528;52.550;13.408;2023-04-01T15:14:19;17.93;;;17.17;;
3036;SDS011;1528;52.550;13.408;2023-04-01T15:17:38;14.30;;;13.70;;
3036;SDS011;1528;52.550;13.408;2023-04-01T15:20:33;15.53;;;14.83;;
3036;SDS011;1528;52.550;13.408;2023-04-01T15:23:37;15.90;;;15.20;;
3036;SDS011;1528;52.550;13.408;2023-04-01T15:26:37;19.07;;;18.20;;
3036;SDS011;1528;52.550;13.408;2023-04-01T15:33:15;18.47;;;17.77;;
3036;SDS011;1528;52.550;13.408;2023-04-01T15:36:15;19.97;;;18.97;;
3036;SDS011;1528;52.550;13.408;2023-04-01T15:39:10;17.30;;;16.50;;
3036;SDS011;1528;52.550;13.408;2023-04-01T15:45:24;19.67;;;18.87;;
3036;SDS011;1528;52.550;13.408;2023-04-01T15:48:40;18.33;;;17.43;;
3036;SDS011;1528;52.550;13.408;2023-04-01T15:51:39;19.07;;;17.97;;
3036;SDS011;1528;52.550;13.408;2023-04-01T15:54:38;18.27;;;17.40;;
3036;SDS011;1528;52.550;13.408;2023-04-01T15:57:39;19.90;;;19.00;;
3036;SDS011;1528;52.550;13.408;2023-04-01T16:00:40;31.17;;;29.30;;
3036;SDS011;1528;52.550;13.408;2023-04-01T16:03:36;19.83;;;18.83;;
3036;SDS011;1528;52.550;13.408;2023-04-01T16:06:42;17.00;;;16.30;;
3036;SDS011;1528;52.550;13.408;2023-04-01T16:09:43;21.07;;;20.13;;
3036;SDS011;1528;52.550;13.408;2023-04-01T16:12:48;20.23;;;19.23;;
3036;SDS011;1528;52.550;13.408;2023-04-01T16:15:44;20.70;;;19.80;;
3036;SDS011;1528;52.550;13.408;2023-04-01T16:18:54;19.20;;;18.50;;
3036;SDS011;1528;52.550;13.408;2023-04-01T16:21:50;19.00;;;18.00;;
3036;SDS011;1528;52.550;13.408;2023-04-01T16:24:40;19.00;;;18.10;;
3036;SDS011;1528;52.550;13.408;2023-04-01T16:27:33;19.43;;;18.53;;
3036;SDS011;1528;52.550;13.408;2023-04-01T16:30:31;18.97;;;18.17;;
3036;SDS011;1528;52.550;13.408;2023-04-01T16:33:22;20.33;;;19.43;;
3036;SDS011;1528;52.550;13.408;2023-04-01T16:36:19;17.80;;;17.10;;
3036;SDS011;1528;52.550;13.408;2023-04-01T16:39:26;15.57;;;14.87;;
3036;SDS011;1528;52.550;13.408;2023-04-01T16:42:22;17.93;;;17.23;;
3036;SDS011;1528;52.550;13.408;2023-04-01T16:45:17;17.17;;;16.47;;
3036;SDS011;1528;52.550;13.408;2023-04-01T16:48:11;16.27;;;15.63;;
3036;SDS011;1528;52.550;13.408;2023-04-01T16:50:58;20.67;;;19.97;;
3036;SDS011;1528;52.550;13.408;2023-04-01T16:53:49;18.80;;;18.20;;
3036;SDS011;1528;52.550;13.408;2023-04-01T16:56:47;20.30;;;19.60;;
3036;SDS011;1528;52.550;13.408;2023-04-01T16:59:40;19.67;;;18.90;;
3036;SDS011;1528;52.550;13.408;2023-04-01T17:02:31;20.57;;;19.63;;
3036;SDS011;1528;52.550;13.408;2023-04-01T17:05:21;19.67;;;18.93;;
3036;SDS011;1528;52.550;13.408;2023-04-01T17:08:28;19.53;;;18.83;;
3036;SDS011;1528;52.550;13.408;2023-04-01T17:11:23;19.20;;;18.30;;
3036;SDS011;1528;52.550;13.408;2023-04-01T17:14:14;16.20;;;15.43;;
3036;SDS011;1528;52.550;13.408;2023-04-01T17:20:14;21.23;;;20.23;;
3036;SDS011;1528;52.550;13.408;2023-04-01T17:23:18;22.93;;;21.83;;
3036;SDS011;1528;52.550;13.408;2023-04-01T17:26:12;17.30;;;16.50;;
3036;SDS011;1528;52.550;13.408;2023-04-01T17:29:09;19.70;;;18.80;;
3036;SDS011;1528;52.550;13.408;2023-04-01T17:32:05;20.80;;;19.90;;
3036;SDS011;1528;52.550;13.408;2023-04-01T17:34:57;18.00;;;17.20;;
3036;SDS011;1528;52.550;13.408;2023-04-01T17:37:54;21.60;;;20.70;;
3036;SDS011;1528;52.550;13.408;2023-04-01T17:40:50;17.97;;;17.07;;
3036;SDS011;1528;52.550;13.408;2023-04-01T17:43:45;17.17;;;16.37;;
3036;SDS011;1528;52.550;13.408;2023-04-01T17:46:42;17.07;;;16.27;;
3036;SDS011;1528;52.550;13.408;2023-04-01T17:49:41;16.50;;;15.70;;
3036;SDS011;1528;52.550;13.408;2023-04-01T17:52:36;17.50;;;16.80;;
3036;SDS011;1528;52.550;13.408;2023-04-01T17:55:31;18.93;;;18.13;;
3036;SDS011;1528;52.550;13.408;2023-04-01T17:58:29;14.40;;;13.70;;
3036;SDS011;1528;52.550;13.408;2023-04-01T18:01:19;16.10;;;15.40;;
3036;SDS011;1528;52.550;13.408;2023-04-01T18:04:17;18.30;;;17.60;;
3036;SDS011;1528;52.550;13.408;2023-04-01T18:07:22;20.47;;;19.57;;
3036;SDS011;1528;52.550;13.408;2023-04-01T18:10:21;18.13;;;17.27;;
3036;SDS011;1528;52.550;13.408;2023-04-01T18:13:26;19.70;;;18.17;;
3036;SDS011;1528;52.550;13.408;2023-04-01T18:16:39;19.70;;;18.70;;
3036;SDS011;1528;52.550;13.408;2023-04-01T18:19:42;18.70;;;17.90;;
3036;SDS011;1528;52.550;13.408;2023-04-01T18:22:39;18.63;;;17.53;;
3036;SDS011;1528;52.550;13.408;2023-04-01T18:25:30;19.30;;;18.40;;
3036;SDS011;1528;52.550;13.408;2023-04-01T18:28:26;18.77;;;17.97;;
3036;SDS011;1528;52.550;13.408;2023-04-01T18:31:20;16.90;;;16.10;;
3036;SDS011;1528;52.550;13.408;2023-04-01T18:34:11;16.63;;;15.70;;
3036;SDS011;1528;52.550;13.408;2023-04-01T18:37:02;15.93;;;15.23;;
3036;SDS011;1528;52.550;13.408;2023-04-01T18:40:10;17.00;;;16.20;;
3036;SDS011;1528;52.550;13.408;2023-04-01T18:43:03;16.57;;;15.70;;
3036;SDS011;1528;52.550;13.408;2023-04-01T18:45:57;17.23;;;16.43;;
3036;SDS011;1528;52.550;13.408;2023-04-01T18:48:49;17.63;;;16.80;;
3036;SDS011;1528;52.550;13.408;2023-04-01T18:51:43;17.10;;;16.20;;